Sugar Land Regional Airport
KSGR : now visible

Airfield :











YOU CAN JOIN US ON...

 
LOGIN :

Register | Disclaimer

   EN    FR    IT 

 









Legend :    VFR   Marginal VFR   IFR   Intensive IFR   Very Intensive IFR
Visi :
Ceiling :
>= 8 km
>= 3000ft
5 to 8 km
1000 to 3000 ft
1500m to 5 km
500 to 1000 ft
800 to 1500m
200 to 500 ft
< 800m
< 200 ft
Symbols :   Thunderstorms  Fog  Heavy snow  Heavy precipitations  Wind > 20 kt






- Airport Elevation : 82 ft


KSGR - Sugar Land Regional

CURRENT METAR :
  • 150653Z AUTO 17011KT 8SM OVC005 21/20 A2979 RMK AO2 SLP089 T02060200

EXPIRED METARs :
  • 150553Z AUTO 16012KT 10SM OVC007 20/19 A2980 RMK AO2 CIG 006V011 SLP091 T02000194 10200 20167 402500067 50001
  • 150519Z AUTO 17008KT 9SM BKN005 BKN010 20/19 A2980 RMK AO2 CIG 005V008 T02000194
  • 150453Z AUTO 16012KT 7SM OVC003 20/19 A2980 RMK AO2 SLP093 T02000194

TAF KSGR
Valid from the 15 at 06:00 until the 16 at 06:00 UTC


150527Z 1506/1606 16008KT P6SM OVC004
FM151300 16007KT P6SM BKN015
FM151600 18010G20KT P6SM BKN025 BKN035
FM151800 18014G24KT P6SM SCT035 BKN045
FM160200 17009KT P6SM SCT025 BKN045



MET'MAP, your aeronautical weather chart ! - Copyright ORBIFLY December 2007 - Disclaimer

ORBIFLY MET'MAP TEAM :

Programming & Development : Alexandra Zaïnal
Concept & original design : Baudouin d'Aumeries
Assistance for programming : Marc-Olivier Méhu
Technical & hardware support : Manuel Goepfert

Contact : metmap@orbifly.com




SOURCES & CREDITS :

   NOAA       Earth
Advisory